createdAt,value
2017-12-13T00:00:24.882Z,1.50
2017-12-13T00:01:24.875Z,1.80
2017-12-13T00:02:24.868Z,1.30
2017-12-13T00:03:24.862Z,1.10
2017-12-13T00:04:24.896Z,1.30
2017-12-13T00:05:24.846Z,1.10
2017-12-13T00:06:24.838Z,1.00
2017-12-13T00:07:24.833Z,1.10
2017-12-13T00:08:24.824Z,1.10
2017-12-13T00:09:24.817Z,1.20
2017-12-13T00:10:24.811Z,1.10
2017-12-13T00:11:24.802Z,1.20
2017-12-13T00:12:24.796Z,1.20
2017-12-13T00:13:24.788Z,1.30
2017-12-13T00:14:24.781Z,1.50
2017-12-13T00:15:24.773Z,1.40
2017-12-13T00:16:24.765Z,1.10
2017-12-13T00:17:24.758Z,0.90
2017-12-13T00:18:24.759Z,1.40
2017-12-13T00:19:24.744Z,1.40
2017-12-13T00:20:24.736Z,1.40
2017-12-13T00:21:24.729Z,1.30
2017-12-13T00:22:24.723Z,1.50
2017-12-13T00:23:24.719Z,1.20
2017-12-13T00:24:24.708Z,1.30
2017-12-13T00:25:24.704Z,1.40
2017-12-13T00:26:24.692Z,1.40
2017-12-13T00:27:24.685Z,1.20
2017-12-13T00:28:24.676Z,1.40
2017-12-13T00:29:24.670Z,1.30
2017-12-13T00:30:24.663Z,1.30
2017-12-13T00:31:24.655Z,1.20
2017-12-13T00:32:24.648Z,1.10
2017-12-13T00:33:24.640Z,1.20
2017-12-13T00:34:24.634Z,1.20
2017-12-13T00:35:24.626Z,1.30
2017-12-13T00:36:24.618Z,1.30
2017-12-13T00:37:24.611Z,1.20
2017-12-13T00:38:24.603Z,1.20
2017-12-13T00:39:24.596Z,1.30
2017-12-13T00:40:24.588Z,1.10
2017-12-13T00:41:24.580Z,1.00
2017-12-13T00:42:24.572Z,1.20
2017-12-13T00:43:24.565Z,1.30
2017-12-13T00:44:24.557Z,1.50
2017-12-13T00:45:24.552Z,1.40
2017-12-13T00:46:24.544Z,1.00
2017-12-13T00:47:24.535Z,1.20
2017-12-13T00:48:24.528Z,1.10
2017-12-13T00:49:24.518Z,1.20
2017-12-13T00:50:24.512Z,1.20
2017-12-13T00:51:24.504Z,1.20
2017-12-13T00:52:24.495Z,1.10
2017-12-13T00:53:24.488Z,1.40
2017-12-13T00:54:24.482Z,1.20
2017-12-13T00:55:24.474Z,1.30
2017-12-13T00:56:24.465Z,1.30
2017-12-13T00:57:24.458Z,1.60
2017-12-13T00:58:24.451Z,1.60
2017-12-13T00:59:24.444Z,1.30
2017-12-13T01:00:24.436Z,1.10
2017-12-13T01:01:24.428Z,1.10
2017-12-13T01:02:24.419Z,1.40
2017-12-13T01:03:24.413Z,1.00
2017-12-13T01:04:24.403Z,1.40
2017-12-13T01:05:24.395Z,1.00
2017-12-13T01:06:24.389Z,1.20
2017-12-13T01:07:24.381Z,1.20
2017-12-13T01:08:24.374Z,1.30
2017-12-13T01:09:24.365Z,1.30
2017-12-13T01:10:24.358Z,1.50
2017-12-13T01:11:24.352Z,1.50
2017-12-13T01:12:24.343Z,1.70
2017-12-13T01:13:24.333Z,1.30
2017-12-13T01:14:24.327Z,1.30
2017-12-13T01:15:24.319Z,1.20
2017-12-13T01:16:24.312Z,1.30
2017-12-13T01:17:24.303Z,1.00
2017-12-13T01:18:24.296Z,1.30
2017-12-13T01:19:24.288Z,1.10
2017-12-13T01:20:24.280Z,1.20
2017-12-13T01:21:24.273Z,1.00
2017-12-13T01:22:24.265Z,1.10
2017-12-13T01:23:24.257Z,1.00
2017-12-13T01:24:24.248Z,1.20
2017-12-13T01:25:24.242Z,1.10
2017-12-13T01:26:24.234Z,1.20
2017-12-13T01:27:24.227Z,1.10
2017-12-13T01:28:24.218Z,1.00
2017-12-13T01:29:24.210Z,1.40
2017-12-13T01:30:24.202Z,1.00
2017-12-13T01:31:24.198Z,1.00
2017-12-13T01:32:24.187Z,1.20
2017-12-13T01:33:24.180Z,1.00
2017-12-13T01:34:24.171Z,1.20
2017-12-13T01:35:24.165Z,1.20
2017-12-13T01:36:24.156Z,0.90
2017-12-13T01:37:24.149Z,1.10
2017-12-13T01:38:24.140Z,1.00
2017-12-13T01:39:24.132Z,1.20
2017-12-13T01:40:24.125Z,1.00
2017-12-13T01:41:24.144Z,1.00
2017-12-13T01:42:24.111Z,1.30
2017-12-13T01:43:24.103Z,1.30
2017-12-13T01:44:24.093Z,1.10
2017-12-13T01:45:24.087Z,1.20
2017-12-13T01:46:24.080Z,1.30
2017-12-13T01:47:24.071Z,1.30
2017-12-13T01:48:24.063Z,1.20
2017-12-13T01:49:24.055Z,1.40
2017-12-13T01:50:24.049Z,1.30
2017-12-13T01:51:24.040Z,1.60
2017-12-13T01:52:24.032Z,1.40
2017-12-13T01:53:24.024Z,1.20
2017-12-13T01:54:24.061Z,1.60
2017-12-13T01:55:24.009Z,1.40
2017-12-13T01:56:24.001Z,1.30
2017-12-13T01:57:23.994Z,1.30
2017-12-13T01:58:23.987Z,1.30
2017-12-13T01:59:23.980Z,1.50
2017-12-13T02:00:23.971Z,1.40
2017-12-13T02:01:23.962Z,1.50
2017-12-13T02:02:23.955Z,1.40
2017-12-13T02:03:23.947Z,1.40
2017-12-13T02:04:23.938Z,1.60
2017-12-13T02:05:23.932Z,1.50
2017-12-13T02:06:23.924Z,1.50
2017-12-13T02:07:23.917Z,1.30
2017-12-13T02:08:23.908Z,1.60
2017-12-13T02:09:23.899Z,1.40
2017-12-13T02:10:23.891Z,1.50
2017-12-13T02:11:23.884Z,1.60
2017-12-13T02:12:23.876Z,1.50
2017-12-13T02:13:23.868Z,1.50
2017-12-13T02:14:23.861Z,1.60
2017-12-13T02:15:23.853Z,1.70
2017-12-13T02:16:23.843Z,1.40
2017-12-13T02:17:23.835Z,1.60
2017-12-13T02:18:23.827Z,1.40
2017-12-13T02:19:23.819Z,1.30
2017-12-13T02:20:23.812Z,1.40
2017-12-13T02:21:23.804Z,1.50
2017-12-13T02:22:23.797Z,1.70
2017-12-13T02:23:23.788Z,1.60
2017-12-13T02:24:23.779Z,1.30
2017-12-13T02:25:23.773Z,1.60
2017-12-13T02:26:23.764Z,1.40
2017-12-13T02:27:23.756Z,1.40
2017-12-13T02:28:23.750Z,1.30
2017-12-13T02:29:23.738Z,1.40
2017-12-13T02:30:23.731Z,1.20
2017-12-13T02:31:23.722Z,1.40
2017-12-13T02:32:23.715Z,1.20
2017-12-13T02:33:23.709Z,1.70
2017-12-13T02:34:23.698Z,1.50
2017-12-13T02:35:23.690Z,1.60
2017-12-13T02:36:23.682Z,1.40
2017-12-13T02:37:23.674Z,2.00
2017-12-13T02:38:23.668Z,1.60
2017-12-13T02:39:23.658Z,1.50
2017-12-13T02:40:23.650Z,1.60
2017-12-13T02:41:23.642Z,1.70
2017-12-13T02:42:23.635Z,1.70
2017-12-13T02:43:23.625Z,2.00
2017-12-13T02:44:23.822Z,2.00
2017-12-13T02:45:23.609Z,1.40
2017-12-13T02:46:23.601Z,1.70
2017-12-13T02:47:23.598Z,2.00
2017-12-13T02:48:23.585Z,1.80
2017-12-13T02:49:23.575Z,2.00
2017-12-13T02:50:23.569Z,1.90
2017-12-13T02:51:23.561Z,2.10
2017-12-13T02:52:23.554Z,1.60
2017-12-13T02:53:23.549Z,1.90
2017-12-13T02:54:23.536Z,1.90
2017-12-13T02:55:23.533Z,2.30
2017-12-13T02:56:23.519Z,2.20
2017-12-13T02:57:23.512Z,2.30
2017-12-13T02:58:23.504Z,2.90
2017-12-13T02:59:23.496Z,2.60
2017-12-13T03:00:23.487Z,2.60
2017-12-13T03:01:23.480Z,2.70
2017-12-13T03:02:23.471Z,3.00
2017-12-13T03:03:23.464Z,2.30
2017-12-13T03:04:23.455Z,2.70
2017-12-13T03:05:23.447Z,2.80
2017-12-13T03:06:23.440Z,2.40
2017-12-13T03:07:23.431Z,2.80
2017-12-13T03:08:23.425Z,2.20
2017-12-13T03:09:23.415Z,2.00
2017-12-13T03:10:23.406Z,2.20
2017-12-13T03:11:23.401Z,2.60
2017-12-13T03:12:23.392Z,2.70
2017-12-13T03:13:23.383Z,2.40
2017-12-13T03:14:23.376Z,2.20
2017-12-13T03:15:23.368Z,2.30
2017-12-13T03:16:23.359Z,2.10
2017-12-13T03:17:23.352Z,2.00
2017-12-13T03:18:23.343Z,1.70
2017-12-13T03:19:23.341Z,2.00
2017-12-13T03:20:23.327Z,2.00
2017-12-13T03:21:23.322Z,1.80
2017-12-13T03:22:23.311Z,2.30
2017-12-13T03:23:23.303Z,2.00
2017-12-13T03:24:23.295Z,2.40
2017-12-13T03:25:23.287Z,2.50
2017-12-13T03:26:23.280Z,2.40
2017-12-13T03:27:23.272Z,1.60
2017-12-13T03:28:23.263Z,2.10
2017-12-13T03:29:23.255Z,1.90
2017-12-13T03:30:23.248Z,2.00
2017-12-13T03:31:23.247Z,2.20
2017-12-13T03:32:23.231Z,2.00
2017-12-13T03:33:23.224Z,2.60
2017-12-13T03:34:23.216Z,2.60
2017-12-13T03:35:23.209Z,2.00
2017-12-13T03:36:23.200Z,2.70
2017-12-13T03:37:23.192Z,2.60
2017-12-13T03:38:23.184Z,2.70
2017-12-13T03:39:23.176Z,2.60
2017-12-13T03:40:23.167Z,2.50
2017-12-13T03:41:23.158Z,1.90
2017-12-13T03:42:23.150Z,1.90
2017-12-13T03:43:23.142Z,2.10
2017-12-13T03:44:23.133Z,2.10
2017-12-13T03:45:23.127Z,1.90
2017-12-13T03:46:23.118Z,2.10
2017-12-13T03:47:23.170Z,2.10
2017-12-13T03:48:23.101Z,1.90
2017-12-13T03:49:23.093Z,2.10
2017-12-13T03:50:23.085Z,2.00
2017-12-13T03:51:23.076Z,2.00
2017-12-13T03:52:23.069Z,2.00
2017-12-13T03:53:23.061Z,1.90
2017-12-13T03:54:23.054Z,2.00
2017-12-13T03:55:23.044Z,1.90
2017-12-13T03:56:23.037Z,2.00
2017-12-13T03:57:23.030Z,2.30
2017-12-13T03:58:23.028Z,2.10
2017-12-13T03:59:23.014Z,2.00
2017-12-13T04:00:23.004Z,2.20
2017-12-13T04:01:22.997Z,2.20
2017-12-13T04:02:22.989Z,2.30
2017-12-13T04:03:22.982Z,2.30
2017-12-13T04:04:22.972Z,2.60
2017-12-13T04:05:22.965Z,2.50
2017-12-13T04:06:22.955Z,1.90
2017-12-13T04:07:22.947Z,1.90
2017-12-13T04:08:22.940Z,1.60
2017-12-13T04:09:22.932Z,2.10
2017-12-13T04:10:22.923Z,2.40
2017-12-13T04:11:22.916Z,2.40
2017-12-13T04:12:22.907Z,2.30
2017-12-13T04:13:22.898Z,2.20
2017-12-13T04:14:22.930Z,2.20
2017-12-13T04:15:22.883Z,2.00
2017-12-13T04:16:22.872Z,1.70
2017-12-13T04:17:22.867Z,1.80
2017-12-13T04:18:22.858Z,2.30
2017-12-13T04:19:22.849Z,2.10
2017-12-13T04:20:22.840Z,1.90
2017-12-13T04:21:22.832Z,1.70
2017-12-13T04:22:22.896Z,2.00
2017-12-13T04:23:22.817Z,1.70
2017-12-13T04:24:22.807Z,1.60
2017-12-13T04:25:22.801Z,1.40
2017-12-13T04:26:22.793Z,1.70
2017-12-13T04:27:22.783Z,1.80
2017-12-13T04:28:22.774Z,1.50
2017-12-13T04:29:22.968Z,2.20
2017-12-13T04:30:22.758Z,2.10
2017-12-13T04:31:22.751Z,2.00
2017-12-13T04:32:22.743Z,1.60
2017-12-13T04:33:22.734Z,1.60
2017-12-13T04:34:22.727Z,1.50
2017-12-13T04:35:22.719Z,1.90
2017-12-13T04:36:22.710Z,1.50
2017-12-13T04:37:22.701Z,1.70
2017-12-13T04:38:22.693Z,1.50
2017-12-13T04:39:22.684Z,1.60
2017-12-13T04:40:22.679Z,2.10
2017-12-13T04:41:22.669Z,1.80
2017-12-13T04:42:22.660Z,1.60
2017-12-13T04:43:22.652Z,1.40
2017-12-13T04:44:22.643Z,1.80
2017-12-13T04:45:22.636Z,1.70
2017-12-13T04:46:22.628Z,1.60
2017-12-13T04:47:22.620Z,1.70
2017-12-13T04:48:22.610Z,1.20
2017-12-13T04:49:22.602Z,1.50
2017-12-13T04:50:22.593Z,1.50
2017-12-13T04:51:22.586Z,1.60
2017-12-13T04:52:22.578Z,1.70
2017-12-13T04:53:22.568Z,1.90
2017-12-13T04:54:22.567Z,1.70
2017-12-13T04:55:22.552Z,1.50
2017-12-13T04:56:22.543Z,1.80
2017-12-13T04:57:22.535Z,1.80
2017-12-13T04:58:22.528Z,1.70
2017-12-13T04:59:22.522Z,1.90
2017-12-13T05:00:22.512Z,1.80
2017-12-13T05:01:22.504Z,1.80
2017-12-13T05:02:22.496Z,1.60
2017-12-13T05:03:22.487Z,1.70
2017-12-13T05:04:22.479Z,1.80
2017-12-13T05:05:22.470Z,1.80
2017-12-13T05:06:22.461Z,1.60
2017-12-13T05:07:22.455Z,1.90
2017-12-13T05:08:22.445Z,1.60
2017-12-13T05:09:22.438Z,1.70
2017-12-13T05:10:22.428Z,1.90
2017-12-13T05:11:22.422Z,1.80
2017-12-13T05:12:22.412Z,1.60
2017-12-13T05:13:22.404Z,1.60
2017-12-13T05:14:22.396Z,1.60
2017-12-13T05:15:22.389Z,1.60
2017-12-13T05:16:22.386Z,1.80
2017-12-13T05:17:22.371Z,1.30
2017-12-13T05:18:22.365Z,1.50
2017-12-13T05:19:22.356Z,1.20
2017-12-13T05:20:22.347Z,1.70
2017-12-13T05:21:22.338Z,1.50
2017-12-13T05:22:22.331Z,1.20
2017-12-13T05:23:22.324Z,1.40
2017-12-13T05:24:22.315Z,1.10
2017-12-13T05:25:22.305Z,1.60
2017-12-13T05:26:22.297Z,1.60
2017-12-13T05:27:22.289Z,1.60
2017-12-13T05:28:22.280Z,1.50
2017-12-13T05:29:22.273Z,1.30
2017-12-13T05:30:22.311Z,1.50
2017-12-13T05:31:22.258Z,1.70
2017-12-13T05:32:22.247Z,1.30
2017-12-13T05:33:22.241Z,2.40
2017-12-13T05:34:22.231Z,1.70
2017-12-13T05:35:22.224Z,1.60
2017-12-13T05:36:22.215Z,1.60
2017-12-13T05:37:22.205Z,1.60
2017-12-13T05:38:22.198Z,1.40
2017-12-13T05:39:22.190Z,1.60
2017-12-13T05:40:22.182Z,1.50
2017-12-13T05:41:22.173Z,1.40
2017-12-13T05:42:22.166Z,1.50
2017-12-13T05:43:22.159Z,1.60
2017-12-13T05:44:22.149Z,1.40
2017-12-13T05:45:22.139Z,1.30
2017-12-13T05:46:22.132Z,1.50
2017-12-13T05:47:22.124Z,1.50
2017-12-13T05:48:22.116Z,1.50
2017-12-13T05:49:22.108Z,1.60
2017-12-13T05:50:22.099Z,1.40
2017-12-13T05:51:22.092Z,1.40
2017-12-13T05:52:22.082Z,1.80
2017-12-13T05:53:22.075Z,1.80
2017-12-13T05:54:22.066Z,2.10
2017-12-13T05:55:22.058Z,2.00
2017-12-13T05:56:22.051Z,1.70
2017-12-13T05:57:22.048Z,1.90
2017-12-13T05:58:22.035Z,1.80
2017-12-13T05:59:22.025Z,1.60
2017-12-13T06:00:22.016Z,1.60
2017-12-13T06:01:22.008Z,1.20
2017-12-13T06:02:21.999Z,1.90
2017-12-13T06:03:21.991Z,1.50
2017-12-13T06:04:21.983Z,1.30
2017-12-13T06:05:21.975Z,1.10
2017-12-13T06:06:21.968Z,1.40
2017-12-13T06:07:21.960Z,1.30
2017-12-13T06:08:21.951Z,1.20
2017-12-13T06:09:21.943Z,1.10
2017-12-13T06:10:21.937Z,1.30
2017-12-13T06:11:21.924Z,1.40
2017-12-13T06:12:21.918Z,1.30
2017-12-13T06:13:21.908Z,1.60
2017-12-13T06:14:21.901Z,1.40
2017-12-13T06:15:21.894Z,1.30
2017-12-13T06:16:21.891Z,1.20
2017-12-13T06:17:21.875Z,1.10
2017-12-13T06:18:21.868Z,1.10
2017-12-13T06:19:21.859Z,1.50
2017-12-13T06:20:21.850Z,1.70
2017-12-13T06:21:21.843Z,1.70
2017-12-13T06:22:21.835Z,1.70
2017-12-13T06:23:21.826Z,1.40
2017-12-13T06:24:21.817Z,1.60
2017-12-13T06:25:21.809Z,1.50
2017-12-13T06:26:21.799Z,1.60
2017-12-13T06:27:21.793Z,1.80
2017-12-13T06:28:21.783Z,2.00
2017-12-13T06:29:21.775Z,1.60
2017-12-13T06:30:21.768Z,1.40
2017-12-13T06:31:21.760Z,1.10
2017-12-13T06:32:21.750Z,1.10
2017-12-13T06:33:21.742Z,1.20
2017-12-13T06:34:21.738Z,1.50
2017-12-13T06:35:21.726Z,1.30
2017-12-13T06:36:21.718Z,1.40
2017-12-13T06:37:21.708Z,1.20
2017-12-13T06:38:21.701Z,1.20
2017-12-13T06:39:21.692Z,1.10
2017-12-13T06:40:21.682Z,1.20
2017-12-13T06:41:21.675Z,1.00
2017-12-13T06:42:21.667Z,1.30
2017-12-13T06:43:21.662Z,1.20
2017-12-13T06:44:21.650Z,1.30
2017-12-13T06:45:21.643Z,1.10
2017-12-13T06:46:21.634Z,1.00
2017-12-13T06:47:21.625Z,1.60
2017-12-13T06:48:21.617Z,1.50
2017-12-13T06:49:21.609Z,1.10
2017-12-13T06:50:21.601Z,1.10
2017-12-13T06:51:21.593Z,1.10
2017-12-13T06:52:21.583Z,1.40
2017-12-13T06:53:21.575Z,1.30
2017-12-13T06:54:21.567Z,1.40
2017-12-13T06:55:21.561Z,1.50
2017-12-13T06:56:21.551Z,1.20
2017-12-13T06:57:21.542Z,1.30
2017-12-13T06:58:21.535Z,1.30
2017-12-13T06:59:21.526Z,1.20
2017-12-13T07:00:21.517Z,1.50
2017-12-13T07:01:21.510Z,1.60
2017-12-13T07:02:21.501Z,1.20
2017-12-13T07:03:21.494Z,1.20
2017-12-13T07:04:21.485Z,1.00
2017-12-13T07:05:21.477Z,1.10
2017-12-13T07:06:21.468Z,1.20
2017-12-13T07:07:21.463Z,1.10
2017-12-13T07:08:21.452Z,1.30
2017-12-13T07:09:21.443Z,1.20
2017-12-13T07:10:21.440Z,1.10
2017-12-13T07:11:21.429Z,1.20
2017-12-13T07:12:21.419Z,1.30
2017-12-13T07:13:21.412Z,1.20
2017-12-13T07:14:21.404Z,1.00
2017-12-13T07:15:21.396Z,1.10
2017-12-13T07:16:21.387Z,1.10
2017-12-13T07:17:21.381Z,1.00
2017-12-13T07:18:21.372Z,0.90
2017-12-13T07:19:21.363Z,1.40
2017-12-13T07:20:21.355Z,1.20
2017-12-13T07:21:21.346Z,1.30
2017-12-13T07:22:21.338Z,1.30
2017-12-13T07:23:21.331Z,1.50
2017-12-13T07:24:21.322Z,1.50
2017-12-13T07:25:21.315Z,1.00
2017-12-13T07:26:21.306Z,1.10
2017-12-13T07:27:21.299Z,1.20
2017-12-13T07:28:21.292Z,1.10
2017-12-13T07:29:21.284Z,1.00
2017-12-13T07:30:21.276Z,1.20
2017-12-13T07:31:21.268Z,1.10
2017-12-13T07:32:21.259Z,0.90
2017-12-13T07:33:21.252Z,0.90
2017-12-13T07:34:21.244Z,1.10
2017-12-13T07:35:21.236Z,0.80
2017-12-13T07:36:21.228Z,1.10
2017-12-13T07:37:21.220Z,3.70
2017-12-13T07:38:21.214Z,4.30
2017-12-13T07:39:21.205Z,1.40
2017-12-13T07:40:21.200Z,1.30
2017-12-13T07:41:21.192Z,1.00
2017-12-13T07:42:21.181Z,1.40
2017-12-13T07:43:21.175Z,1.30
2017-12-13T07:44:21.165Z,1.30
2017-12-13T07:45:21.159Z,1.30
2017-12-13T07:46:21.151Z,1.50
2017-12-13T07:47:21.143Z,1.10
2017-12-13T07:48:21.136Z,1.20
2017-12-13T07:49:21.129Z,1.20
2017-12-13T07:50:21.153Z,1.70
2017-12-13T07:51:21.161Z,1.60
2017-12-13T07:52:21.107Z,1.40
2017-12-13T07:53:21.100Z,1.40
2017-12-13T07:54:21.094Z,1.30
2017-12-13T07:55:21.086Z,1.40
2017-12-13T07:56:21.078Z,1.80
2017-12-13T07:57:21.070Z,2.10
2017-12-13T07:58:21.065Z,2.70
2017-12-13T07:59:21.059Z,2.70
2017-12-13T08:00:21.049Z,2.20
2017-12-13T08:01:21.043Z,2.20
2017-12-13T08:02:21.037Z,1.90
2017-12-13T08:03:21.332Z,2.30
2017-12-13T08:04:21.024Z,1.90
2017-12-13T08:05:21.016Z,1.30
2017-12-13T08:06:21.009Z,1.80
2017-12-13T08:07:21.004Z,1.30
2017-12-13T08:08:20.996Z,1.70
2017-12-13T08:09:20.991Z,1.30
2017-12-13T08:10:20.983Z,1.60
2017-12-13T08:11:20.978Z,1.30
2017-12-13T08:12:20.970Z,1.20
2017-12-13T08:13:20.964Z,1.60
2017-12-13T08:14:20.957Z,1.50
2017-12-13T08:15:20.952Z,1.50
2017-12-13T08:16:20.944Z,1.40
2017-12-13T08:17:20.940Z,1.90
2017-12-13T08:18:20.933Z,1.60
2017-12-13T08:19:20.928Z,1.20
2017-12-13T08:20:20.920Z,2.50
2017-12-13T08:21:20.914Z,1.80
2017-12-13T08:22:20.908Z,1.60
2017-12-13T08:23:20.903Z,1.20
2017-12-13T08:24:20.896Z,1.30
2017-12-13T08:25:20.892Z,1.20
2017-12-13T08:26:20.886Z,1.10
2017-12-13T08:27:20.882Z,1.10
2017-12-13T08:28:20.874Z,1.30
2017-12-13T08:29:20.869Z,1.00
2017-12-13T08:30:20.862Z,1.10
2017-12-13T08:31:20.856Z,1.20
2017-12-13T08:32:20.850Z,2.00
2017-12-13T08:33:20.845Z,2.20
2017-12-13T08:34:20.837Z,1.20
2017-12-13T08:35:20.832Z,1.30
2017-12-13T08:36:20.825Z,1.60
2017-12-13T08:37:20.819Z,3.80
2017-12-13T08:38:20.814Z,2.90
2017-12-13T08:39:20.808Z,1.40
2017-12-13T08:40:20.802Z,1.40
2017-12-13T08:41:20.798Z,1.60
2017-12-13T08:42:20.791Z,1.20
2017-12-13T08:43:20.787Z,1.30
2017-12-13T08:44:20.779Z,1.40
2017-12-13T08:45:20.775Z,1.20
2017-12-13T08:46:20.768Z,1.20
2017-12-13T08:47:20.764Z,1.20
2017-12-13T08:48:20.757Z,1.10
2017-12-13T08:49:20.752Z,1.30
2017-12-13T08:50:20.745Z,1.00
2017-12-13T08:51:20.741Z,1.00
2017-12-13T08:52:20.733Z,1.00
2017-12-13T08:53:20.730Z,0.90
2017-12-13T08:54:20.725Z,1.50
2017-12-13T08:55:20.722Z,1.20
2017-12-13T08:56:20.714Z,1.00
2017-12-13T08:57:20.707Z,1.00
2017-12-13T08:58:20.702Z,1.00
2017-12-13T08:59:20.702Z,1.10
2017-12-13T09:00:20.692Z,1.00
2017-12-13T09:01:20.688Z,0.90
2017-12-13T09:02:20.683Z,1.10
2017-12-13T09:03:20.676Z,0.90
2017-12-13T09:04:20.670Z,1.10
2017-12-13T09:05:20.665Z,1.10
2017-12-13T09:06:20.661Z,1.10
2017-12-13T09:07:20.655Z,1.20
2017-12-13T09:08:20.649Z,1.10
2017-12-13T09:09:20.643Z,1.20
2017-12-13T09:10:20.639Z,1.70
2017-12-13T09:11:20.634Z,1.20
2017-12-13T09:12:20.628Z,1.30
2017-12-13T09:13:20.625Z,1.30
2017-12-13T09:14:20.619Z,0.90
2017-12-13T09:15:20.614Z,1.00
2017-12-13T09:16:20.608Z,1.10
2017-12-13T09:17:20.602Z,1.20
2017-12-13T09:18:20.597Z,1.20
2017-12-13T09:19:20.594Z,1.20
2017-12-13T09:20:20.587Z,1.00
2017-12-13T09:21:20.583Z,1.20
2017-12-13T09:22:20.579Z,1.00
2017-12-13T09:23:20.574Z,1.20
2017-12-13T09:24:20.571Z,1.10
2017-12-13T09:25:20.565Z,1.30
2017-12-13T09:26:20.562Z,1.10
2017-12-13T09:27:20.558Z,1.40
2017-12-13T09:28:20.554Z,1.40
2017-12-13T09:29:20.549Z,1.20
2017-12-13T09:30:20.546Z,1.20
2017-12-13T09:31:20.544Z,1.20
2017-12-13T09:32:20.538Z,1.50
2017-12-13T09:33:20.535Z,1.10
2017-12-13T09:34:20.534Z,1.10
2017-12-13T09:35:20.533Z,1.30
2017-12-13T09:36:20.530Z,1.30
2017-12-13T09:37:20.528Z,1.50
2017-12-13T09:38:20.527Z,2.00
2017-12-13T09:39:20.529Z,1.10
2017-12-13T09:40:20.526Z,1.80
2017-12-13T09:41:20.527Z,1.60
2017-12-13T09:42:20.526Z,1.40
2017-12-13T09:43:20.527Z,1.50
2017-12-13T09:44:20.526Z,1.60
2017-12-13T09:45:20.527Z,1.10
2017-12-13T09:46:20.527Z,1.40
2017-12-13T09:47:20.531Z,1.20
2017-12-13T09:48:20.528Z,1.10
2017-12-13T09:49:20.526Z,1.30
2017-12-13T09:50:20.527Z,1.90
2017-12-13T09:51:20.540Z,1.20
2017-12-13T09:52:20.526Z,1.50
2017-12-13T09:53:20.527Z,1.30
2017-12-13T09:54:20.526Z,1.40
2017-12-13T09:55:20.526Z,1.20
2017-12-13T09:56:20.526Z,1.40
2017-12-13T09:57:20.525Z,1.20
2017-12-13T09:58:20.525Z,1.00
2017-12-13T09:59:20.526Z,1.10
2017-12-13T10:00:20.525Z,1.20
2017-12-13T10:01:20.553Z,1.30
2017-12-13T10:02:20.524Z,1.10
2017-12-13T10:03:20.523Z,1.30
2017-12-13T10:04:20.522Z,1.40
2017-12-13T10:05:20.523Z,1.00
2017-12-13T10:06:20.522Z,0.90
2017-12-13T10:07:20.523Z,1.00
2017-12-13T10:08:20.522Z,1.20
2017-12-13T10:09:20.523Z,1.10
2017-12-13T10:10:20.525Z,1.20
2017-12-13T10:11:20.525Z,1.00
2017-12-13T10:12:20.526Z,1.00
2017-12-13T10:13:20.529Z,1.30
2017-12-13T10:14:20.533Z,1.10
2017-12-13T10:15:20.533Z,1.20
2017-12-13T10:16:20.534Z,1.10
2017-12-13T10:17:20.536Z,1.20
2017-12-13T10:18:20.542Z,1.10
2017-12-13T10:19:20.544Z,1.50
2017-12-13T10:20:20.547Z,2.00
2017-12-13T10:21:20.551Z,1.30
2017-12-13T10:22:20.554Z,1.20
2017-12-13T10:23:20.558Z,1.20
2017-12-13T10:24:20.561Z,1.30
2017-12-13T10:25:20.566Z,1.20
2017-12-13T10:26:20.567Z,1.20
2017-12-13T10:27:20.572Z,1.40
2017-12-13T10:28:20.573Z,1.40
2017-12-13T10:29:20.579Z,1.60
2017-12-13T10:30:20.581Z,1.30
2017-12-13T10:31:20.584Z,1.50
2017-12-13T10:32:20.587Z,1.70
2017-12-13T10:33:20.590Z,1.80
2017-12-13T10:34:20.594Z,1.70
2017-12-13T10:35:20.597Z,1.90
2017-12-13T10:36:20.599Z,1.60
2017-12-13T10:37:20.602Z,1.40
2017-12-13T10:38:20.606Z,1.20
2017-12-13T10:39:20.608Z,1.20
2017-12-13T10:40:20.615Z,1.20
2017-12-13T10:41:20.614Z,1.10
2017-12-13T10:42:20.622Z,1.10
2017-12-13T10:43:20.622Z,1.00
2017-12-13T10:44:20.624Z,1.30
2017-12-13T10:45:20.629Z,1.10
2017-12-13T10:46:20.633Z,1.30
2017-12-13T10:47:20.639Z,1.10
2017-12-13T10:48:20.641Z,1.20
2017-12-13T10:49:20.644Z,1.40
2017-12-13T10:50:20.650Z,1.40
2017-12-13T10:51:20.654Z,1.30
2017-12-13T10:52:20.657Z,1.30
2017-12-13T10:53:20.668Z,1.10
2017-12-13T10:54:20.667Z,0.90
2017-12-13T10:55:20.671Z,1.10
2017-12-13T10:56:20.675Z,1.90
2017-12-13T10:57:20.682Z,1.50
2017-12-13T10:58:20.688Z,1.10
2017-12-13T10:59:20.691Z,1.30
2017-12-13T11:00:20.723Z,1.30
2017-12-13T11:01:20.705Z,1.40
2017-12-13T11:02:20.707Z,1.20
2017-12-13T11:03:20.712Z,1.00
2017-12-13T11:04:20.717Z,1.30
2017-12-13T11:05:20.777Z,1.00
2017-12-13T11:06:20.727Z,1.10
2017-12-13T11:07:20.733Z,1.30
2017-12-13T11:08:20.736Z,1.40
2017-12-13T11:09:20.741Z,1.40
2017-12-13T11:10:20.745Z,1.10
2017-12-13T11:11:20.749Z,1.10
2017-12-13T11:12:20.755Z,1.20
2017-12-13T11:13:20.759Z,1.00
2017-12-13T11:14:20.763Z,1.20
2017-12-13T11:15:20.769Z,1.20
2017-12-13T11:16:20.773Z,1.10
2017-12-13T11:17:20.777Z,1.30
2017-12-13T11:18:20.782Z,1.40
2017-12-13T11:19:20.786Z,1.30
2017-12-13T11:20:20.792Z,1.20
2017-12-13T11:21:20.802Z,1.30
2017-12-13T11:22:20.798Z,1.00
2017-12-13T11:23:20.803Z,1.30
2017-12-13T11:24:20.806Z,1.10
2017-12-13T11:25:20.810Z,1.20
2017-12-13T11:26:20.815Z,1.30
2017-12-13T11:27:20.819Z,1.10
2017-12-13T11:28:20.822Z,1.30
2017-12-13T11:29:20.827Z,1.20
2017-12-13T11:30:20.829Z,1.00
2017-12-13T11:31:20.833Z,1.20
2017-12-13T11:32:20.876Z,1.00
2017-12-13T11:33:20.839Z,1.20
2017-12-13T11:34:20.845Z,1.20
2017-12-13T11:35:20.845Z,1.20
2017-12-13T11:36:20.847Z,1.20
2017-12-13T11:37:20.851Z,1.00
2017-12-13T11:38:20.854Z,0.90
2017-12-13T11:39:20.856Z,0.90
2017-12-13T11:40:20.856Z,1.10
2017-12-13T11:41:20.861Z,1.00
2017-12-13T11:42:20.860Z,1.00
2017-12-13T11:43:20.862Z,1.00
2017-12-13T11:44:20.865Z,1.20
2017-12-13T11:45:20.865Z,1.00
2017-12-13T11:46:20.868Z,1.10
2017-12-13T11:47:20.870Z,1.00
2017-12-13T11:48:20.873Z,1.50
2017-12-13T11:49:20.873Z,1.60
2017-12-13T11:50:20.874Z,1.90
2017-12-13T11:51:20.875Z,1.10
2017-12-13T11:52:20.877Z,1.20
2017-12-13T11:55:09.748Z,1.50
2017-12-13T11:56:09.748Z,1.10
2017-12-13T11:57:09.748Z,1.50
2017-12-13T11:58:09.750Z,0.90
2017-12-13T11:59:09.752Z,1.10
2017-12-13T12:00:09.752Z,1.10
2017-12-13T12:01:09.752Z,1.30
2017-12-13T12:02:09.754Z,1.20
2017-12-13T12:03:09.793Z,1.10
2017-12-13T12:04:09.753Z,1.30
2017-12-13T12:05:09.755Z,1.20
2017-12-13T12:08:09.758Z,1.00
2017-12-13T12:09:09.758Z,1.20
2017-12-13T12:10:09.760Z,1.20
2017-12-13T12:11:09.762Z,1.10
2017-12-13T12:12:09.761Z,1.10
2017-12-13T12:13:09.763Z,1.10
2017-12-13T12:14:09.763Z,1.30
2017-12-13T12:15:09.767Z,1.20
2017-12-13T12:16:09.768Z,1.40
2017-12-13T12:17:09.769Z,1.30
2017-12-13T12:18:09.771Z,1.40
2017-12-13T12:19:09.772Z,1.40
2017-12-13T12:20:09.774Z,1.50
2017-12-13T12:21:09.774Z,2.10
2017-12-13T12:22:09.775Z,1.40
2017-12-13T12:23:09.777Z,1.10
2017-12-13T12:24:09.777Z,1.40
2017-12-13T12:27:00.301Z,2.00
2017-12-13T12:28:00.303Z,2.10
2017-12-13T12:29:00.306Z,1.60
2017-12-13T12:30:00.305Z,1.00
2017-12-13T12:31:00.306Z,1.30
2017-12-13T12:33:55.241Z,2.10
2017-12-13T12:34:55.241Z,1.30
2017-12-13T12:35:55.243Z,1.10
2017-12-13T12:36:55.244Z,1.10
2017-12-13T12:37:55.246Z,1.60
2017-12-13T12:38:55.248Z,1.70
2017-12-13T12:41:44.670Z,1.30
2017-12-13T12:42:44.671Z,1.40
2017-12-13T12:43:44.673Z,1.20
2017-12-13T12:44:44.675Z,1.30
2017-12-13T12:45:44.680Z,1.60
2017-12-13T12:46:44.677Z,1.10
2017-12-13T12:47:44.678Z,1.30
2017-12-13T12:48:44.680Z,1.30
2017-12-13T12:49:44.681Z,1.50
2017-12-13T12:50:44.682Z,1.10
2017-12-13T12:53:40.163Z,0.90
2017-12-13T12:54:40.217Z,0.80
2017-12-13T12:55:40.162Z,0.80
2017-12-13T12:56:40.165Z,1.20
2017-12-13T12:59:40.166Z,1.00
2017-12-13T13:00:40.190Z,0.90
2017-12-13T13:01:40.167Z,1.10
2017-12-13T13:02:40.168Z,1.10
2017-12-13T13:03:40.169Z,1.00
2017-12-13T13:04:40.169Z,1.00
2017-12-13T13:07:40.170Z,0.80
2017-12-13T13:08:40.170Z,1.00
2017-12-13T13:09:40.170Z,0.90
2017-12-13T13:10:40.169Z,1.30
2017-12-13T13:13:59.798Z,0.90
2017-12-13T13:14:59.801Z,1.00
2017-12-13T13:15:59.796Z,1.00
2017-12-13T13:16:59.796Z,1.50
2017-12-13T13:17:59.797Z,1.30
2017-12-13T13:18:59.797Z,1.00
2017-12-13T13:19:59.797Z,1.00
2017-12-13T13:22:49.467Z,0.80
2017-12-13T13:23:49.468Z,1.20
2017-12-13T13:24:49.467Z,1.20
2017-12-13T13:25:49.467Z,1.00
2017-12-13T13:29:33.878Z,1.00
2017-12-13T13:30:33.885Z,1.10
2017-12-13T13:31:33.878Z,1.50
2017-12-13T13:32:33.878Z,1.20
2017-12-13T13:33:33.880Z,1.50
2017-12-13T13:34:33.881Z,1.30
2017-12-13T13:35:33.881Z,1.20
2017-12-13T13:36:33.879Z,1.20
2017-12-13T13:37:33.882Z,1.30
2017-12-13T13:38:33.881Z,1.10
2017-12-13T13:39:33.882Z,0.90
2017-12-13T13:42:32.865Z,1.20